sensor_id;sensor_type;location;lat;lon;timestamp;P1;durP1;ratioP1;P2;durP2;ratioP2
72427;SDS011;60419;48.880;18.036;2022-11-04T00:02:31;20.48;;;10.02;;
72427;SDS011;60419;48.880;18.036;2022-11-04T00:05:17;19.70;;;9.10;;
72427;SDS011;60419;48.880;18.036;2022-11-04T00:08:02;19.13;;;9.55;;
72427;SDS011;60419;48.880;18.036;2022-11-04T00:11:06;20.38;;;9.57;;
72427;SDS011;60419;48.880;18.036;2022-11-04T00:14:12;19.17;;;9.45;;
72427;SDS011;60419;48.880;18.036;2022-11-04T00:16:58;21.45;;;9.10;;
72427;SDS011;60419;48.880;18.036;2022-11-04T00:20:02;18.05;;;9.23;;
72427;SDS011;60419;48.880;18.036;2022-11-04T00:23:06;18.63;;;9.30;;
72427;SDS011;60419;48.880;18.036;2022-11-04T00:26:10;19.35;;;9.23;;
72427;SDS011;60419;48.880;18.036;2022-11-04T00:29:14;16.98;;;9.00;;
72427;SDS011;60419;48.880;18.036;2022-11-04T00:31:59;20.73;;;9.98;;
72427;SDS011;60419;48.880;18.036;2022-11-04T00:35:03;17.50;;;9.02;;
72427;SDS011;60419;48.880;18.036;2022-11-04T00:37:49;16.58;;;8.55;;
72427;SDS011;60419;48.880;18.036;2022-11-04T00:40:35;21.30;;;9.98;;
72427;SDS011;60419;48.880;18.036;2022-11-04T00:43:20;21.58;;;10.10;;
72427;SDS011;60419;48.880;18.036;2022-11-04T00:46:05;18.63;;;9.85;;
72427;SDS011;60419;48.880;18.036;2022-11-04T00:48:51;19.88;;;9.90;;
72427;SDS011;60419;48.880;18.036;2022-11-04T00:51:36;18.92;;;8.75;;
72427;SDS011;60419;48.880;18.036;2022-11-04T00:54:21;17.08;;;10.07;;
72427;SDS011;60419;48.880;18.036;2022-11-04T00:57:13;16.52;;;8.73;;
72427;SDS011;60419;48.880;18.036;2022-11-04T00:59:59;18.85;;;9.02;;
72427;SDS011;60419;48.880;18.036;2022-11-04T01:02:45;17.30;;;8.73;;
72427;SDS011;60419;48.880;18.036;2022-11-04T01:05:30;20.42;;;9.90;;
72427;SDS011;60419;48.880;18.036;2022-11-04T01:08:16;19.55;;;9.43;;
72427;SDS011;60419;48.880;18.036;2022-11-04T01:11:05;19.23;;;9.77;;
72427;SDS011;60419;48.880;18.036;2022-11-04T01:13:52;18.37;;;9.23;;
72427;SDS011;60419;48.880;18.036;2022-11-04T01:16:37;18.48;;;9.32;;
72427;SDS011;60419;48.880;18.036;2022-11-04T01:19:23;19.45;;;9.48;;
72427;SDS011;60419;48.880;18.036;2022-11-04T01:22:08;18.35;;;9.23;;
72427;SDS011;60419;48.880;18.036;2022-11-04T01:24:54;17.52;;;9.10;;
72427;SDS011;60419;48.880;18.036;2022-11-04T01:27:39;15.52;;;8.82;;
72427;SDS011;60419;48.880;18.036;2022-11-04T01:30:24;22.33;;;9.65;;
72427;SDS011;60419;48.880;18.036;2022-11-04T01:33:10;19.45;;;9.60;;
72427;SDS011;60419;48.880;18.036;2022-11-04T01:35:58;19.75;;;9.55;;
72427;SDS011;60419;48.880;18.036;2022-11-04T01:38:43;18.63;;;9.93;;
72427;SDS011;60419;48.880;18.036;2022-11-04T01:41:30;20.25;;;9.40;;
72427;SDS011;60419;48.880;18.036;2022-11-04T01:50:25;17.98;;;9.48;;
72427;SDS011;60419;48.880;18.036;2022-11-04T01:53:15;17.50;;;9.50;;
72427;SDS011;60419;48.880;18.036;2022-11-04T01:58:56;20.30;;;10.43;;
72427;SDS011;60419;48.880;18.036;2022-11-04T02:01:49;19.90;;;10.65;;
72427;SDS011;60419;48.880;18.036;2022-11-04T02:04:34;18.17;;;10.40;;
72427;SDS011;60419;48.880;18.036;2022-11-04T02:07:21;20.50;;;10.68;;
72427;SDS011;60419;48.880;18.036;2022-11-04T02:10:07;21.13;;;10.85;;
72427;SDS011;60419;48.880;18.036;2022-11-04T02:12:54;19.02;;;10.05;;
72427;SDS011;60419;48.880;18.036;2022-11-04T02:19:39;18.27;;;9.57;;
72427;SDS011;60419;48.880;18.036;2022-11-04T02:25:03;19.80;;;10.45;;
72427;SDS011;60419;48.880;18.036;2022-11-04T02:31:06;18.63;;;10.75;;
72427;SDS011;60419;48.880;18.036;2022-11-04T02:39:55;19.55;;;10.48;;
72427;SDS011;60419;48.880;18.036;2022-11-04T02:42:44;20.88;;;10.30;;
72427;SDS011;60419;48.880;18.036;2022-11-04T02:45:37;19.05;;;9.75;;
72427;SDS011;60419;48.880;18.036;2022-11-04T02:48:29;17.45;;;9.77;;
72427;SDS011;60419;48.880;18.036;2022-11-04T02:54:16;15.95;;;9.88;;
72427;SDS011;60419;48.880;18.036;2022-11-04T02:57:19;18.33;;;10.60;;
72427;SDS011;60419;48.880;18.036;2022-11-04T03:00:08;18.75;;;10.02;;
72427;SDS011;60419;48.880;18.036;2022-11-04T03:03:01;18.20;;;10.32;;
72427;SDS011;60419;48.880;18.036;2022-11-04T03:05:51;17.60;;;9.57;;
72427;SDS011;60419;48.880;18.036;2022-11-04T03:08:40;20.13;;;10.30;;
72427;SDS011;60419;48.880;18.036;2022-11-04T03:14:21;18.90;;;9.80;;
72427;SDS011;60419;48.880;18.036;2022-11-04T03:17:20;18.33;;;9.95;;
72427;SDS011;60419;48.880;18.036;2022-11-04T03:20:16;19.33;;;9.82;;
72427;SDS011;60419;48.880;18.036;2022-11-04T03:23:05;17.75;;;9.15;;
72427;SDS011;60419;48.880;18.036;2022-11-04T03:25:51;19.55;;;10.25;;
72427;SDS011;60419;48.880;18.036;2022-11-04T03:28:45;15.18;;;9.43;;
72427;SDS011;60419;48.880;18.036;2022-11-04T03:31:54;17.83;;;9.75;;
72427;SDS011;60419;48.880;18.036;2022-11-04T03:35:03;18.50;;;10.77;;
72427;SDS011;60419;48.880;18.036;2022-11-04T03:37:49;17.17;;;9.52;;
72427;SDS011;60419;48.880;18.036;2022-11-04T03:40:35;18.88;;;9.43;;
72427;SDS011;60419;48.880;18.036;2022-11-04T03:43:21;17.88;;;9.77;;
72427;SDS011;60419;48.880;18.036;2022-11-04T03:46:09;16.48;;;9.63;;
72427;SDS011;60419;48.880;18.036;2022-11-04T03:48:56;16.92;;;9.23;;
72427;SDS011;60419;48.880;18.036;2022-11-04T03:51:42;16.75;;;8.95;;
72427;SDS011;60419;48.880;18.036;2022-11-04T03:54:28;17.05;;;9.45;;
72427;SDS011;60419;48.880;18.036;2022-11-04T03:58:19;17.35;;;9.25;;
72427;SDS011;60419;48.880;18.036;2022-11-04T04:00:57;17.83;;;9.05;;
72427;SDS011;60419;48.880;18.036;2022-11-04T04:03:54;15.52;;;8.40;;
72427;SDS011;60419;48.880;18.036;2022-11-04T04:06:43;16.40;;;8.77;;
72427;SDS011;60419;48.880;18.036;2022-11-04T04:09:32;18.02;;;10.18;;
72427;SDS011;60419;48.880;18.036;2022-11-04T04:12:34;17.52;;;10.07;;
72427;SDS011;60419;48.880;18.036;2022-11-04T04:15:24;18.70;;;9.55;;
72427;SDS011;60419;48.880;18.036;2022-11-04T04:18:15;17.05;;;9.65;;
72427;SDS011;60419;48.880;18.036;2022-11-04T04:21:10;18.63;;;9.32;;
72427;SDS011;60419;48.880;18.036;2022-11-04T04:23:59;17.80;;;9.80;;
72427;SDS011;60419;48.880;18.036;2022-11-04T04:27:08;15.68;;;8.80;;
72427;SDS011;60419;48.880;18.036;2022-11-04T04:30:13;15.57;;;8.77;;
72427;SDS011;60419;48.880;18.036;2022-11-04T04:33:02;21.00;;;9.60;;
72427;SDS011;60419;48.880;18.036;2022-11-04T04:35:53;15.55;;;8.88;;
72427;SDS011;60419;48.880;18.036;2022-11-04T04:38:40;18.83;;;8.52;;
72427;SDS011;60419;48.880;18.036;2022-11-04T04:41:46;16.60;;;8.82;;
72427;SDS011;60419;48.880;18.036;2022-11-04T04:44:51;17.20;;;9.20;;
72427;SDS011;60419;48.880;18.036;2022-11-04T04:47:48;17.83;;;8.85;;
72427;SDS011;60419;48.880;18.036;2022-11-04T04:50:36;16.48;;;9.35;;
72427;SDS011;60419;48.880;18.036;2022-11-04T04:53:24;18.73;;;8.38;;
72427;SDS011;60419;48.880;18.036;2022-11-04T04:56:10;17.33;;;9.02;;
72427;SDS011;60419;48.880;18.036;2022-11-04T04:58:55;16.15;;;8.68;;
72427;SDS011;60419;48.880;18.036;2022-11-04T05:01:40;15.38;;;9.18;;
72427;SDS011;60419;48.880;18.036;2022-11-04T05:04:26;15.55;;;9.05;;
72427;SDS011;60419;48.880;18.036;2022-11-04T05:07:11;15.60;;;8.98;;
72427;SDS011;60419;48.880;18.036;2022-11-04T05:09:56;16.40;;;8.82;;
72427;SDS011;60419;48.880;18.036;2022-11-04T05:12:42;17.08;;;9.07;;
72427;SDS011;60419;48.880;18.036;2022-11-04T05:15:47;15.27;;;8.50;;
72427;SDS011;60419;48.880;18.036;2022-11-04T05:18:32;17.40;;;9.55;;
72427;SDS011;60419;48.880;18.036;2022-11-04T05:21:18;16.85;;;9.82;;
72427;SDS011;60419;48.880;18.036;2022-11-04T05:24:04;16.02;;;9.05;;
72427;SDS011;60419;48.880;18.036;2022-11-04T05:26:49;16.92;;;9.10;;
72427;SDS011;60419;48.880;18.036;2022-11-04T05:29:35;18.33;;;10.02;;
72427;SDS011;60419;48.880;18.036;2022-11-04T05:32:20;15.65;;;8.77;;
72427;SDS011;60419;48.880;18.036;2022-11-04T05:35:06;21.30;;;9.63;;
72427;SDS011;60419;48.880;18.036;2022-11-04T05:37:51;15.77;;;9.00;;
72427;SDS011;60419;48.880;18.036;2022-11-04T05:40:39;16.67;;;8.43;;
72427;SDS011;60419;48.880;18.036;2022-11-04T05:43:25;16.90;;;9.70;;
72427;SDS011;60419;48.880;18.036;2022-11-04T05:46:10;17.48;;;10.43;;
72427;SDS011;60419;48.880;18.036;2022-11-04T05:48:56;16.38;;;8.98;;
72427;SDS011;60419;48.880;18.036;2022-11-04T05:51:41;16.55;;;9.45;;
72427;SDS011;60419;48.880;18.036;2022-11-04T05:54:27;18.98;;;10.18;;
72427;SDS011;60419;48.880;18.036;2022-11-04T05:57:12;15.63;;;9.77;;
72427;SDS011;60419;48.880;18.036;2022-11-04T05:59:57;19.25;;;10.77;;
72427;SDS011;60419;48.880;18.036;2022-11-04T06:02:43;19.52;;;10.23;;
72427;SDS011;60419;48.880;18.036;2022-11-04T06:05:28;17.13;;;10.48;;
72427;SDS011;60419;48.880;18.036;2022-11-04T06:08:14;19.88;;;10.57;;
72427;SDS011;60419;48.880;18.036;2022-11-04T06:10:59;16.50;;;10.00;;
72427;SDS011;60419;48.880;18.036;2022-11-04T06:13:45;21.40;;;11.40;;
72427;SDS011;60419;48.880;18.036;2022-11-04T06:16:30;20.77;;;11.10;;
72427;SDS011;60419;48.880;18.036;2022-11-04T06:19:15;17.25;;;9.85;;
72427;SDS011;60419;48.880;18.036;2022-11-04T06:22:01;19.02;;;10.52;;
72427;SDS011;60419;48.880;18.036;2022-11-04T06:24:47;17.50;;;9.85;;
72427;SDS011;60419;48.880;18.036;2022-11-04T06:27:33;19.75;;;10.43;;
72427;SDS011;60419;48.880;18.036;2022-11-04T06:30:18;16.95;;;9.50;;
72427;SDS011;60419;48.880;18.036;2022-11-04T06:33:03;18.20;;;10.50;;
72427;SDS011;60419;48.880;18.036;2022-11-04T06:35:49;17.00;;;9.98;;
72427;SDS011;60419;48.880;18.036;2022-11-04T06:38:35;18.70;;;10.52;;
72427;SDS011;60419;48.880;18.036;2022-11-04T06:41:24;18.45;;;9.90;;
72427;SDS011;60419;48.880;18.036;2022-11-04T06:44:09;17.40;;;10.45;;
72427;SDS011;60419;48.880;18.036;2022-11-04T06:46:55;20.55;;;10.57;;
72427;SDS011;60419;48.880;18.036;2022-11-04T06:49:40;20.35;;;11.13;;
72427;SDS011;60419;48.880;18.036;2022-11-04T06:52:25;19.40;;;11.20;;
72427;SDS011;60419;48.880;18.036;2022-11-04T06:55:11;18.73;;;10.88;;
72427;SDS011;60419;48.880;18.036;2022-11-04T06:57:56;18.98;;;10.68;;
72427;SDS011;60419;48.880;18.036;2022-11-04T07:00:41;18.42;;;10.50;;
72427;SDS011;60419;48.880;18.036;2022-11-04T07:03:27;17.30;;;10.18;;
72427;SDS011;60419;48.880;18.036;2022-11-04T07:06:12;18.48;;;10.32;;
72427;SDS011;60419;48.880;18.036;2022-11-04T07:08:58;17.35;;;10.10;;
72427;SDS011;60419;48.880;18.036;2022-11-04T07:11:46;17.98;;;10.68;;
72427;SDS011;60419;48.880;18.036;2022-11-04T07:14:31;19.63;;;10.13;;
72427;SDS011;60419;48.880;18.036;2022-11-04T07:17:17;16.80;;;10.10;;
72427;SDS011;60419;48.880;18.036;2022-11-04T07:20:02;16.55;;;9.45;;
72427;SDS011;60419;48.880;18.036;2022-11-04T07:22:49;19.38;;;10.90;;
72427;SDS011;60419;48.880;18.036;2022-11-04T07:25:35;20.23;;;10.30;;
72427;SDS011;60419;48.880;18.036;2022-11-04T07:28:20;18.95;;;10.77;;
72427;SDS011;60419;48.880;18.036;2022-11-04T07:31:06;20.55;;;10.38;;
72427;SDS011;60419;48.880;18.036;2022-11-04T07:33:52;17.85;;;9.35;;
72427;SDS011;60419;48.880;18.036;2022-11-04T07:36:38;16.95;;;10.10;;
72427;SDS011;60419;48.880;18.036;2022-11-04T07:39:23;16.75;;;9.75;;
72427;SDS011;60419;48.880;18.036;2022-11-04T07:42:09;17.33;;;10.07;;
72427;SDS011;60419;48.880;18.036;2022-11-04T07:44:54;18.38;;;9.40;;
72427;SDS011;60419;48.880;18.036;2022-11-04T07:47:39;16.75;;;9.00;;
72427;SDS011;60419;48.880;18.036;2022-11-04T07:50:25;19.27;;;9.38;;
72427;SDS011;60419;48.880;18.036;2022-11-04T07:53:10;20.73;;;10.43;;
72427;SDS011;60419;48.880;18.036;2022-11-04T07:55:56;17.73;;;8.80;;
72427;SDS011;60419;48.880;18.036;2022-11-04T07:58:42;17.58;;;9.48;;
72427;SDS011;60419;48.880;18.036;2022-11-04T08:01:27;16.48;;;9.40;;
72427;SDS011;60419;48.880;18.036;2022-11-04T08:04:12;17.48;;;9.80;;
72427;SDS011;60419;48.880;18.036;2022-11-04T08:06:58;17.05;;;8.88;;
72427;SDS011;60419;48.880;18.036;2022-11-04T08:09:43;15.25;;;8.90;;
72427;SDS011;60419;48.880;18.036;2022-11-04T08:12:29;16.33;;;8.88;;
72427;SDS011;60419;48.880;18.036;2022-11-04T08:15:16;15.43;;;8.57;;
72427;SDS011;60419;48.880;18.036;2022-11-04T08:18:01;16.27;;;9.63;;
72427;SDS011;60419;48.880;18.036;2022-11-04T08:20:48;13.68;;;8.25;;
72427;SDS011;60419;48.880;18.036;2022-11-04T08:23:34;16.92;;;9.10;;
72427;SDS011;60419;48.880;18.036;2022-11-04T08:26:20;15.50;;;9.27;;
72427;SDS011;60419;48.880;18.036;2022-11-04T08:29:07;18.20;;;10.10;;
72427;SDS011;60419;48.880;18.036;2022-11-04T08:31:53;16.58;;;9.13;;
72427;SDS011;60419;48.880;18.036;2022-11-04T08:34:38;17.58;;;9.10;;
72427;SDS011;60419;48.880;18.036;2022-11-04T08:37:24;18.95;;;9.15;;
72427;SDS011;60419;48.880;18.036;2022-11-04T08:40:09;17.25;;;9.27;;
72427;SDS011;60419;48.880;18.036;2022-11-04T08:42:55;16.95;;;9.27;;
72427;SDS011;60419;48.880;18.036;2022-11-04T08:45:41;15.38;;;8.82;;
72427;SDS011;60419;48.880;18.036;2022-11-04T08:48:29;18.83;;;9.30;;
72427;SDS011;60419;48.880;18.036;2022-11-04T08:51:18;16.15;;;8.93;;
72427;SDS011;60419;48.880;18.036;2022-11-04T08:54:06;15.80;;;8.77;;
72427;SDS011;60419;48.880;18.036;2022-11-04T08:56:51;15.30;;;8.68;;
72427;SDS011;60419;48.880;18.036;2022-11-04T08:59:37;15.30;;;9.07;;
72427;SDS011;60419;48.880;18.036;2022-11-04T09:02:22;15.80;;;8.57;;
72427;SDS011;60419;48.880;18.036;2022-11-04T09:05:08;15.77;;;8.93;;
72427;SDS011;60419;48.880;18.036;2022-11-04T09:07:53;15.88;;;8.93;;
72427;SDS011;60419;48.880;18.036;2022-11-04T09:10:40;16.88;;;9.02;;
72427;SDS011;60419;48.880;18.036;2022-11-04T09:13:29;16.95;;;9.15;;
72427;SDS011;60419;48.880;18.036;2022-11-04T09:16:15;17.85;;;10.77;;
72427;SDS011;60419;48.880;18.036;2022-11-04T09:19:00;20.92;;;11.35;;
72427;SDS011;60419;48.880;18.036;2022-11-04T09:21:46;19.67;;;10.45;;
72427;SDS011;60419;48.880;18.036;2022-11-04T09:24:31;23.83;;;12.90;;
72427;SDS011;60419;48.880;18.036;2022-11-04T09:27:17;25.80;;;13.93;;
72427;SDS011;60419;48.880;18.036;2022-11-04T09:30:02;21.95;;;12.88;;
72427;SDS011;60419;48.880;18.036;2022-11-04T09:32:48;24.45;;;13.55;;
72427;SDS011;60419;48.880;18.036;2022-11-04T09:35:33;22.20;;;13.25;;
72427;SDS011;60419;48.880;18.036;2022-11-04T09:38:18;23.65;;;13.52;;
72427;SDS011;60419;48.880;18.036;2022-11-04T09:41:07;23.13;;;12.75;;
72427;SDS011;60419;48.880;18.036;2022-11-04T09:47:09;24.67;;;13.38;;
72427;SDS011;60419;48.880;18.036;2022-11-04T09:49:57;24.58;;;14.85;;
72427;SDS011;60419;48.880;18.036;2022-11-04T09:52:45;26.40;;;13.95;;
72427;SDS011;60419;48.880;18.036;2022-11-04T09:55:40;26.85;;;14.95;;
72427;SDS011;60419;48.880;18.036;2022-11-04T09:58:35;27.05;;;14.23;;
72427;SDS011;60419;48.880;18.036;2022-11-04T10:01:27;25.48;;;13.85;;
72427;SDS011;60419;48.880;18.036;2022-11-04T10:04:33;23.00;;;12.60;;
72427;SDS011;60419;48.880;18.036;2022-11-04T10:07:42;22.95;;;13.10;;
72427;SDS011;60419;48.880;18.036;2022-11-04T10:10:47;23.83;;;13.40;;
72427;SDS011;60419;48.880;18.036;2022-11-04T10:16:50;22.77;;;13.73;;
72427;SDS011;60419;48.880;18.036;2022-11-04T10:19:55;22.40;;;12.98;;
72427;SDS011;60419;48.880;18.036;2022-11-04T10:29:45;25.92;;;13.18;;
72427;SDS011;60419;48.880;18.036;2022-11-04T10:35:47;27.35;;;13.35;;
72427;SDS011;60419;48.880;18.036;2022-11-04T10:38:37;26.08;;;14.45;;
72427;SDS011;60419;48.880;18.036;2022-11-04T10:41:34;24.65;;;13.38;;
72427;SDS011;60419;48.880;18.036;2022-11-04T10:44:27;22.33;;;12.73;;
72427;SDS011;60419;48.880;18.036;2022-11-04T10:50:29;19.27;;;11.18;;
72427;SDS011;60419;48.880;18.036;2022-11-04T10:53:22;19.70;;;11.45;;
72427;SDS011;60419;48.880;18.036;2022-11-04T10:56:14;20.15;;;11.85;;
72427;SDS011;60419;48.880;18.036;2022-11-04T10:59:22;20.73;;;11.70;;
72427;SDS011;60419;48.880;18.036;2022-11-04T11:02:10;18.77;;;11.30;;
72427;SDS011;60419;48.880;18.036;2022-11-04T11:05:03;20.33;;;12.10;;
72427;SDS011;60419;48.880;18.036;2022-11-04T11:08:01;23.38;;;11.52;;
72427;SDS011;60419;48.880;18.036;2022-11-04T11:10:50;19.65;;;12.25;;
72427;SDS011;60419;48.880;18.036;2022-11-04T11:13:38;20.80;;;12.10;;
72427;SDS011;60419;48.880;18.036;2022-11-04T11:16:25;22.55;;;12.50;;
72427;SDS011;60419;48.880;18.036;2022-11-04T11:19:19;16.90;;;11.05;;
72427;SDS011;60419;48.880;18.036;2022-11-04T11:22:17;19.98;;;11.85;;
72427;SDS011;60419;48.880;18.036;2022-11-04T11:25:26;23.40;;;12.20;;
72427;SDS011;60419;48.880;18.036;2022-11-04T11:28:20;18.52;;;11.52;;
72427;SDS011;60419;48.880;18.036;2022-11-04T11:31:11;19.38;;;11.82;;
72427;SDS011;60419;48.880;18.036;2022-11-04T11:34:20;23.70;;;12.88;;
72427;SDS011;60419;48.880;18.036;2022-11-04T11:37:17;22.10;;;11.88;;
72427;SDS011;60419;48.880;18.036;2022-11-04T11:40:21;23.00;;;12.80;;
72427;SDS011;60419;48.880;18.036;2022-11-04T11:43:15;23.33;;;13.15;;
72427;SDS011;60419;48.880;18.036;2022-11-04T11:46:19;22.00;;;12.88;;
72427;SDS011;60419;48.880;18.036;2022-11-04T11:49:10;21.48;;;13.15;;
72427;SDS011;60419;48.880;18.036;2022-11-04T11:52:26;24.70;;;13.02;;
72427;SDS011;60419;48.880;18.036;2022-11-04T11:55:33;23.33;;;11.95;;
72427;SDS011;60419;48.880;18.036;2022-11-04T11:58:24;19.33;;;12.05;;
72427;SDS011;60419;48.880;18.036;2022-11-04T12:01:18;19.50;;;11.77;;
72427;SDS011;60419;48.880;18.036;2022-11-04T12:04:10;19.08;;;10.82;;
72427;SDS011;60419;48.880;18.036;2022-11-04T12:13:20;16.63;;;11.03;;
72427;SDS011;60419;48.880;18.036;2022-11-04T12:16:19;18.63;;;11.38;;
72427;SDS011;60419;48.880;18.036;2022-11-04T12:19:21;18.60;;;12.18;;
72427;SDS011;60419;48.880;18.036;2022-11-04T12:28:09;16.85;;;10.90;;
72427;SDS011;60419;48.880;18.036;2022-11-04T12:34:32;14.48;;;9.40;;
72427;SDS011;60419;48.880;18.036;2022-11-04T12:43:50;13.80;;;8.63;;
72427;SDS011;60419;48.880;18.036;2022-11-04T12:55:43;14.93;;;10.05;;
72427;SDS011;60419;48.880;18.036;2022-11-04T12:58:44;15.93;;;9.50;;
72427;SDS011;60419;48.880;18.036;2022-11-04T13:02:06;14.68;;;9.52;;
72427;SDS011;60419;48.880;18.036;2022-11-04T13:05:04;15.68;;;10.32;;
72427;SDS011;60419;48.880;18.036;2022-11-04T13:14:28;17.13;;;11.10;;
72427;SDS011;60419;48.880;18.036;2022-11-04T13:17:34;19.13;;;11.05;;
72427;SDS011;60419;48.880;18.036;2022-11-04T13:20:30;14.77;;;10.23;;
72427;SDS011;60419;48.880;18.036;2022-11-04T13:23:30;16.10;;;10.60;;
72427;SDS011;60419;48.880;18.036;2022-11-04T13:26:36;14.38;;;9.13;;
72427;SDS011;60419;48.880;18.036;2022-11-04T13:29:22;14.27;;;8.82;;
72427;SDS011;60419;48.880;18.036;2022-11-04T13:32:20;13.90;;;7.93;;
72427;SDS011;60419;48.880;18.036;2022-11-04T13:35:18;12.38;;;7.28;;
72427;SDS011;60419;48.880;18.036;2022-11-04T13:38:17;12.70;;;7.93;;
72427;SDS011;60419;48.880;18.036;2022-11-04T13:44:25;11.70;;;7.80;;
72427;SDS011;60419;48.880;18.036;2022-11-04T13:47:22;13.10;;;8.05;;
72427;SDS011;60419;48.880;18.036;2022-11-04T13:50:32;11.13;;;7.18;;
72427;SDS011;60419;48.880;18.036;2022-11-04T13:53:26;12.23;;;7.70;;
72427;SDS011;60419;48.880;18.036;2022-11-04T13:56:29;10.80;;;7.07;;
72427;SDS011;60419;48.880;18.036;2022-11-04T13:59:18;10.73;;;6.80;;
72427;SDS011;60419;48.880;18.036;2022-11-04T14:08:09;11.00;;;7.00;;
72427;SDS011;60419;48.880;18.036;2022-11-04T14:13:45;10.52;;;6.57;;
72427;SDS011;60419;48.880;18.036;2022-11-04T14:16:38;10.88;;;6.70;;
72427;SDS011;60419;48.880;18.036;2022-11-04T14:25:34;12.27;;;7.22;;
72427;SDS011;60419;48.880;18.036;2022-11-04T14:28:24;9.38;;;6.50;;
72427;SDS011;60419;48.880;18.036;2022-11-04T14:31:12;11.98;;;7.53;;
72427;SDS011;60419;48.880;18.036;2022-11-04T14:37:19;11.50;;;6.90;;
72427;SDS011;60419;48.880;18.036;2022-11-04T14:40:14;11.48;;;7.15;;
72427;SDS011;60419;48.880;18.036;2022-11-04T14:43:16;11.50;;;7.45;;
72427;SDS011;60419;48.880;18.036;2022-11-04T14:55:15;15.15;;;9.38;;
72427;SDS011;60419;48.880;18.036;2022-11-04T14:58:22;13.90;;;8.98;;
72427;SDS011;60419;48.880;18.036;2022-11-04T15:01:09;14.25;;;9.20;;
72427;SDS011;60419;48.880;18.036;2022-11-04T15:04:06;16.30;;;11.02;;
72427;SDS011;60419;48.880;18.036;2022-11-04T15:07:00;16.95;;;10.43;;
72427;SDS011;60419;48.880;18.036;2022-11-04T15:09:48;16.98;;;10.80;;
72427;SDS011;60419;48.880;18.036;2022-11-04T15:12:34;15.68;;;10.00;;
72427;SDS011;60419;48.880;18.036;2022-11-04T15:15:38;17.03;;;11.13;;
72427;SDS011;60419;48.880;18.036;2022-11-04T15:18:28;15.63;;;10.80;;
72427;SDS011;60419;48.880;18.036;2022-11-04T15:21:14;20.65;;;10.30;;
72427;SDS011;60419;48.880;18.036;2022-11-04T15:24:00;15.50;;;9.52;;
72427;SDS011;60419;48.880;18.036;2022-11-04T15:26:49;16.40;;;9.52;;
72427;SDS011;60419;48.880;18.036;2022-11-04T15:29:37;20.42;;;11.88;;
72427;SDS011;60419;48.880;18.036;2022-11-04T15:32:22;13.98;;;9.50;;
72427;SDS011;60419;48.880;18.036;2022-11-04T15:35:10;16.00;;;10.35;;
72427;SDS011;60419;48.880;18.036;2022-11-04T15:37:58;18.73;;;11.40;;
72427;SDS011;60419;48.880;18.036;2022-11-04T15:40:45;13.77;;;8.32;;
72427;SDS011;60419;48.880;18.036;2022-11-04T15:43:31;16.52;;;9.32;;
72427;SDS011;60419;48.880;18.036;2022-11-04T15:46:17;13.32;;;7.95;;
72427;SDS011;60419;48.880;18.036;2022-11-04T15:49:04;16.10;;;9.80;;
72427;SDS011;60419;48.880;18.036;2022-11-04T15:51:51;16.20;;;9.95;;
72427;SDS011;60419;48.880;18.036;2022-11-04T15:54:40;17.27;;;10.07;;
72427;SDS011;60419;48.880;18.036;2022-11-04T15:57:30;15.30;;;10.00;;
72427;SDS011;60419;48.880;18.036;2022-11-04T16:00:21;15.15;;;9.77;;
72427;SDS011;60419;48.880;18.036;2022-11-04T16:03:15;16.02;;;10.30;;
72427;SDS011;60419;48.880;18.036;2022-11-04T16:06:04;16.35;;;10.75;;
72427;SDS011;60419;48.880;18.036;2022-11-04T16:09:01;14.50;;;9.77;;
72427;SDS011;60419;48.880;18.036;2022-11-04T16:12:14;16.67;;;10.20;;
72427;SDS011;60419;48.880;18.036;2022-11-04T16:15:02;18.02;;;10.68;;
72427;SDS011;60419;48.880;18.036;2022-11-04T16:17:47;15.85;;;10.05;;
72427;SDS011;60419;48.880;18.036;2022-11-04T16:20:33;16.17;;;9.98;;
72427;SDS011;60419;48.880;18.036;2022-11-04T16:23:20;25.48;;;15.05;;
72427;SDS011;60419;48.880;18.036;2022-11-04T16:26:12;16.05;;;12.05;;
72427;SDS011;60419;48.880;18.036;2022-11-04T16:28:58;19.60;;;12.48;;
72427;SDS011;60419;48.880;18.036;2022-11-04T16:31:44;16.42;;;10.38;;
72427;SDS011;60419;48.880;18.036;2022-11-04T16:34:29;18.98;;;10.93;;
72427;SDS011;60419;48.880;18.036;2022-11-04T16:37:15;16.38;;;10.50;;
72427;SDS011;60419;48.880;18.036;2022-11-04T16:40:00;16.52;;;11.20;;
72427;SDS011;60419;48.880;18.036;2022-11-04T16:42:46;19.85;;;14.20;;
72427;SDS011;60419;48.880;18.036;2022-11-04T16:45:33;22.92;;;13.68;;
72427;SDS011;60419;48.880;18.036;2022-11-04T16:48:20;24.17;;;13.60;;
72427;SDS011;60419;48.880;18.036;2022-11-04T16:51:12;21.30;;;12.88;;
72427;SDS011;60419;48.880;18.036;2022-11-04T16:54:00;21.50;;;13.82;;
72427;SDS011;60419;48.880;18.036;2022-11-04T16:56:45;18.20;;;11.77;;
72427;SDS011;60419;48.880;18.036;2022-11-04T16:59:31;20.88;;;12.23;;
72427;SDS011;60419;48.880;18.036;2022-11-04T17:02:18;19.58;;;12.30;;
72427;SDS011;60419;48.880;18.036;2022-11-04T17:05:09;20.30;;;10.85;;
72427;SDS011;60419;48.880;18.036;2022-11-04T17:07:56;15.13;;;10.63;;
72427;SDS011;60419;48.880;18.036;2022-11-04T17:10:42;18.23;;;11.40;;
72427;SDS011;60419;48.880;18.036;2022-11-04T17:13:28;25.77;;;16.05;;
72427;SDS011;60419;48.880;18.036;2022-11-04T17:16:13;31.48;;;19.13;;
72427;SDS011;60419;48.880;18.036;2022-11-04T17:18:59;25.92;;;16.52;;
72427;SDS011;60419;48.880;18.036;2022-11-04T17:21:44;23.02;;;14.50;;
72427;SDS011;60419;48.880;18.036;2022-11-04T17:24:30;21.17;;;14.40;;
72427;SDS011;60419;48.880;18.036;2022-11-04T17:27:15;23.35;;;14.77;;
72427;SDS011;60419;48.880;18.036;2022-11-04T17:30:01;24.42;;;14.98;;
72427;SDS011;60419;48.880;18.036;2022-11-04T17:32:46;24.45;;;14.80;;
72427;SDS011;60419;48.880;18.036;2022-11-04T17:35:32;22.17;;;14.00;;
72427;SDS011;60419;48.880;18.036;2022-11-04T17:38:21;20.33;;;12.80;;
72427;SDS011;60419;48.880;18.036;2022-11-04T17:41:06;17.60;;;12.25;;
72427;SDS011;60419;48.880;18.036;2022-11-04T17:44:10;17.38;;;11.15;;
72427;SDS011;60419;48.880;18.036;2022-11-04T17:46:55;16.65;;;10.32;;
72427;SDS011;60419;48.880;18.036;2022-11-04T17:49:44;16.73;;;10.95;;
72427;SDS011;60419;48.880;18.036;2022-11-04T17:52:29;19.13;;;11.90;;
72427;SDS011;60419;48.880;18.036;2022-11-04T17:55:15;17.58;;;12.32;;
72427;SDS011;60419;48.880;18.036;2022-11-04T17:58:00;21.45;;;13.15;;
72427;SDS011;60419;48.880;18.036;2022-11-04T18:00:45;22.38;;;14.25;;
72427;SDS011;60419;48.880;18.036;2022-11-04T18:03:31;34.30;;;20.83;;
72427;SDS011;60419;48.880;18.036;2022-11-04T18:06:16;39.67;;;23.38;;
72427;SDS011;60419;48.880;18.036;2022-11-04T18:09:02;44.05;;;25.80;;
72427;SDS011;60419;48.880;18.036;2022-11-04T18:11:48;45.83;;;27.67;;
72427;SDS011;60419;48.880;18.036;2022-11-04T18:14:52;44.40;;;26.63;;
72427;SDS011;60419;48.880;18.036;2022-11-04T18:17:38;46.25;;;27.63;;
72427;SDS011;60419;48.880;18.036;2022-11-04T18:20:25;46.20;;;27.42;;
72427;SDS011;60419;48.880;18.036;2022-11-04T18:23:10;45.75;;;27.48;;
72427;SDS011;60419;48.880;18.036;2022-11-04T18:25:56;47.67;;;28.65;;
72427;SDS011;60419;48.880;18.036;2022-11-04T18:28:42;47.50;;;29.17;;